sensor_id;sensor_type;location;lat;lon;timestamp;P1;durP1;ratioP1;P2;durP2;ratioP2
46288;SDS011;63105;46.158;14.604;2023-06-10T00:02:23;4.00;;;2.60;;
46288;SDS011;63105;46.158;14.604;2023-06-10T00:04:49;3.72;;;2.40;;
46288;SDS011;63105;46.158;14.604;2023-06-10T00:07:14;3.70;;;2.45;;
46288;SDS011;63105;46.158;14.604;2023-06-10T00:09:40;4.23;;;2.30;;
46288;SDS011;63105;46.158;14.604;2023-06-10T00:12:06;4.63;;;2.78;;
46288;SDS011;63105;46.158;14.604;2023-06-10T00:14:41;4.07;;;2.60;;
46288;SDS011;63105;46.158;14.604;2023-06-10T00:17:07;3.57;;;2.40;;
46288;SDS011;63105;46.158;14.604;2023-06-10T00:19:38;4.72;;;2.85;;
46288;SDS011;63105;46.158;14.604;2023-06-10T00:22:06;4.45;;;2.78;;
46288;SDS011;63105;46.158;14.604;2023-06-10T00:24:32;5.00;;;2.60;;
46288;SDS011;63105;46.158;14.604;2023-06-10T00:26:57;4.80;;;2.90;;
46288;SDS011;63105;46.158;14.604;2023-06-10T00:29:22;4.63;;;2.90;;
46288;SDS011;63105;46.158;14.604;2023-06-10T00:31:47;4.53;;;2.93;;
46288;SDS011;63105;46.158;14.604;2023-06-10T00:34:12;4.97;;;3.35;;
46288;SDS011;63105;46.158;14.604;2023-06-10T00:36:37;5.82;;;3.20;;
46288;SDS011;63105;46.158;14.604;2023-06-10T00:39:03;5.07;;;2.90;;
46288;SDS011;63105;46.158;14.604;2023-06-10T00:41:29;4.38;;;2.50;;
46288;SDS011;63105;46.158;14.604;2023-06-10T00:43:55;4.90;;;3.15;;
46288;SDS011;63105;46.158;14.604;2023-06-10T00:46:21;4.05;;;2.70;;
46288;SDS011;63105;46.158;14.604;2023-06-10T00:48:47;4.32;;;2.80;;
46288;SDS011;63105;46.158;14.604;2023-06-10T00:51:12;4.20;;;3.00;;
46288;SDS011;63105;46.158;14.604;2023-06-10T00:53:39;4.72;;;3.00;;
46288;SDS011;63105;46.158;14.604;2023-06-10T00:56:04;5.10;;;2.80;;
46288;SDS011;63105;46.158;14.604;2023-06-10T00:58:29;4.45;;;2.88;;
46288;SDS011;63105;46.158;14.604;2023-06-10T01:00:56;4.65;;;3.17;;
46288;SDS011;63105;46.158;14.604;2023-06-10T01:03:22;4.57;;;3.30;;
46288;SDS011;63105;46.158;14.604;2023-06-10T01:05:48;4.10;;;2.80;;
46288;SDS011;63105;46.158;14.604;2023-06-10T01:08:28;4.93;;;3.38;;
46288;SDS011;63105;46.158;14.604;2023-06-10T01:10:57;4.57;;;3.28;;
46288;SDS011;63105;46.158;14.604;2023-06-10T01:13:24;3.67;;;2.75;;
46288;SDS011;63105;46.158;14.604;2023-06-10T01:15:53;4.10;;;2.90;;
46288;SDS011;63105;46.158;14.604;2023-06-10T01:18:19;4.50;;;3.08;;
46288;SDS011;63105;46.158;14.604;2023-06-10T01:20:44;4.78;;;3.58;;
46288;SDS011;63105;46.158;14.604;2023-06-10T01:23:11;4.75;;;3.38;;
46288;SDS011;63105;46.158;14.604;2023-06-10T01:25:40;4.63;;;3.17;;
46288;SDS011;63105;46.158;14.604;2023-06-10T01:31:05;5.03;;;3.60;;
46288;SDS011;63105;46.158;14.604;2023-06-10T01:33:33;4.72;;;3.53;;
46288;SDS011;63105;46.158;14.604;2023-06-10T01:35:59;4.50;;;3.30;;
46288;SDS011;63105;46.158;14.604;2023-06-10T01:38:26;5.28;;;3.50;;
46288;SDS011;63105;46.158;14.604;2023-06-10T01:40:55;4.30;;;3.35;;
46288;SDS011;63105;46.158;14.604;2023-06-10T01:43:20;4.15;;;2.90;;
46288;SDS011;63105;46.158;14.604;2023-06-10T01:45:46;4.25;;;3.20;;
46288;SDS011;63105;46.158;14.604;2023-06-10T01:48:11;4.35;;;3.15;;
46288;SDS011;63105;46.158;14.604;2023-06-10T01:50:36;4.43;;;3.40;;
46288;SDS011;63105;46.158;14.604;2023-06-10T01:53:01;4.83;;;3.20;;
46288;SDS011;63105;46.158;14.604;2023-06-10T01:55:27;4.00;;;2.65;;
46288;SDS011;63105;46.158;14.604;2023-06-10T01:57:52;3.77;;;2.77;;
46288;SDS011;63105;46.158;14.604;2023-06-10T02:00:17;4.18;;;3.10;;
46288;SDS011;63105;46.158;14.604;2023-06-10T02:02:42;4.13;;;3.00;;
46288;SDS011;63105;46.158;14.604;2023-06-10T02:05:08;5.93;;;3.17;;
46288;SDS011;63105;46.158;14.604;2023-06-10T02:07:33;4.90;;;3.08;;
46288;SDS011;63105;46.158;14.604;2023-06-10T02:09:58;3.90;;;2.70;;
46288;SDS011;63105;46.158;14.604;2023-06-10T02:12:23;4.73;;;3.13;;
46288;SDS011;63105;46.158;14.604;2023-06-10T02:14:49;4.00;;;2.93;;
46288;SDS011;63105;46.158;14.604;2023-06-10T02:17:15;4.55;;;2.95;;
46288;SDS011;63105;46.158;14.604;2023-06-10T02:19:40;4.17;;;2.97;;
46288;SDS011;63105;46.158;14.604;2023-06-10T02:22:07;4.68;;;2.92;;
46288;SDS011;63105;46.158;14.604;2023-06-10T02:24:33;4.85;;;3.10;;
46288;SDS011;63105;46.158;14.604;2023-06-10T02:26:58;4.43;;;2.93;;
46288;SDS011;63105;46.158;14.604;2023-06-10T02:29:25;4.93;;;3.35;;
46288;SDS011;63105;46.158;14.604;2023-06-10T02:31:50;4.37;;;3.17;;
46288;SDS011;63105;46.158;14.604;2023-06-10T02:34:17;5.43;;;3.40;;
46288;SDS011;63105;46.158;14.604;2023-06-10T02:36:42;4.93;;;3.50;;
46288;SDS011;63105;46.158;14.604;2023-06-10T02:39:08;4.50;;;3.30;;
46288;SDS011;63105;46.158;14.604;2023-06-10T02:41:33;4.93;;;3.45;;
46288;SDS011;63105;46.158;14.604;2023-06-10T02:43:59;4.20;;;3.17;;
46288;SDS011;63105;46.158;14.604;2023-06-10T02:46:24;6.10;;;3.30;;
46288;SDS011;63105;46.158;14.604;2023-06-10T02:48:49;4.88;;;3.45;;
46288;SDS011;63105;46.158;14.604;2023-06-10T02:51:16;4.30;;;3.10;;
46288;SDS011;63105;46.158;14.604;2023-06-10T02:53:42;4.67;;;3.40;;
46288;SDS011;63105;46.158;14.604;2023-06-10T02:56:07;4.73;;;3.40;;
46288;SDS011;63105;46.158;14.604;2023-06-10T02:58:32;4.78;;;3.60;;
46288;SDS011;63105;46.158;14.604;2023-06-10T03:00:57;5.90;;;3.90;;
46288;SDS011;63105;46.158;14.604;2023-06-10T03:03:23;4.82;;;3.40;;
46288;SDS011;63105;46.158;14.604;2023-06-10T03:05:48;4.88;;;3.60;;
46288;SDS011;63105;46.158;14.604;2023-06-10T03:08:13;5.20;;;3.57;;
46288;SDS011;63105;46.158;14.604;2023-06-10T03:10:39;4.22;;;3.20;;
46288;SDS011;63105;46.158;14.604;2023-06-10T03:13:04;4.67;;;3.50;;
46288;SDS011;63105;46.158;14.604;2023-06-10T03:15:30;4.97;;;3.63;;
46288;SDS011;63105;46.158;14.604;2023-06-10T03:17:57;4.57;;;3.38;;
46288;SDS011;63105;46.158;14.604;2023-06-10T03:20:23;4.73;;;3.50;;
46288;SDS011;63105;46.158;14.604;2023-06-10T03:22:48;4.47;;;3.30;;
46288;SDS011;63105;46.158;14.604;2023-06-10T03:25:13;4.93;;;3.07;;
46288;SDS011;63105;46.158;14.604;2023-06-10T03:27:40;5.05;;;3.38;;
46288;SDS011;63105;46.158;14.604;2023-06-10T03:30:06;4.95;;;3.17;;
46288;SDS011;63105;46.158;14.604;2023-06-10T03:32:31;3.95;;;3.05;;
46288;SDS011;63105;46.158;14.604;2023-06-10T03:34:56;4.10;;;3.10;;
46288;SDS011;63105;46.158;14.604;2023-06-10T03:37:21;4.47;;;3.10;;
46288;SDS011;63105;46.158;14.604;2023-06-10T03:39:47;4.47;;;2.90;;
46288;SDS011;63105;46.158;14.604;2023-06-10T03:42:12;4.77;;;3.07;;
46288;SDS011;63105;46.158;14.604;2023-06-10T03:44:37;4.53;;;3.23;;
46288;SDS011;63105;46.158;14.604;2023-06-10T03:47:03;4.22;;;2.70;;
46288;SDS011;63105;46.158;14.604;2023-06-10T03:49:28;3.83;;;2.70;;
46288;SDS011;63105;46.158;14.604;2023-06-10T03:51:54;3.88;;;2.72;;
46288;SDS011;63105;46.158;14.604;2023-06-10T03:54:19;4.97;;;2.90;;
46288;SDS011;63105;46.158;14.604;2023-06-10T03:56:44;4.15;;;2.50;;
46288;SDS011;63105;46.158;14.604;2023-06-10T03:59:09;4.25;;;2.70;;
46288;SDS011;63105;46.158;14.604;2023-06-10T04:01:35;4.20;;;2.90;;
46288;SDS011;63105;46.158;14.604;2023-06-10T04:04:02;3.90;;;2.55;;
46288;SDS011;63105;46.158;14.604;2023-06-10T04:06:27;4.10;;;2.60;;
46288;SDS011;63105;46.158;14.604;2023-06-10T04:08:54;3.72;;;2.70;;
46288;SDS011;63105;46.158;14.604;2023-06-10T04:11:20;3.85;;;2.67;;
46288;SDS011;63105;46.158;14.604;2023-06-10T04:13:46;4.30;;;2.70;;
46288;SDS011;63105;46.158;14.604;2023-06-10T04:16:11;4.13;;;2.90;;
46288;SDS011;63105;46.158;14.604;2023-06-10T04:18:36;3.75;;;2.58;;
46288;SDS011;63105;46.158;14.604;2023-06-10T04:21:02;3.83;;;2.70;;
46288;SDS011;63105;46.158;14.604;2023-06-10T04:23:27;5.28;;;2.83;;
46288;SDS011;63105;46.158;14.604;2023-06-10T04:25:52;4.20;;;3.07;;
46288;SDS011;63105;46.158;14.604;2023-06-10T04:28:17;4.38;;;3.05;;
46288;SDS011;63105;46.158;14.604;2023-06-10T04:30:42;4.40;;;3.10;;
46288;SDS011;63105;46.158;14.604;2023-06-10T04:33:09;3.72;;;2.70;;
46288;SDS011;63105;46.158;14.604;2023-06-10T04:35:35;4.05;;;3.05;;
46288;SDS011;63105;46.158;14.604;2023-06-10T04:38:00;4.43;;;3.03;;
46288;SDS011;63105;46.158;14.604;2023-06-10T04:40:27;4.03;;;2.90;;
46288;SDS011;63105;46.158;14.604;2023-06-10T04:42:52;5.83;;;3.17;;
46288;SDS011;63105;46.158;14.604;2023-06-10T04:45:18;4.37;;;2.90;;
46288;SDS011;63105;46.158;14.604;2023-06-10T04:47:43;4.73;;;3.13;;
46288;SDS011;63105;46.158;14.604;2023-06-10T04:50:08;4.65;;;3.10;;
46288;SDS011;63105;46.158;14.604;2023-06-10T04:52:33;4.45;;;3.10;;
46288;SDS011;63105;46.158;14.604;2023-06-10T04:54:59;4.97;;;3.00;;
46288;SDS011;63105;46.158;14.604;2023-06-10T04:57:24;3.97;;;2.63;;
46288;SDS011;63105;46.158;14.604;2023-06-10T04:59:49;3.70;;;2.70;;
46288;SDS011;63105;46.158;14.604;2023-06-10T05:02:14;3.77;;;2.70;;
46288;SDS011;63105;46.158;14.604;2023-06-10T05:04:39;3.95;;;2.67;;
46288;SDS011;63105;46.158;14.604;2023-06-10T05:07:05;4.38;;;3.03;;
46288;SDS011;63105;46.158;14.604;2023-06-10T05:09:30;4.60;;;2.70;;
46288;SDS011;63105;46.158;14.604;2023-06-10T05:11:55;3.50;;;2.42;;
46288;SDS011;63105;46.158;14.604;2023-06-10T05:14:21;3.70;;;2.50;;
46288;SDS011;63105;46.158;14.604;2023-06-10T05:16:46;3.88;;;2.60;;
46288;SDS011;63105;46.158;14.604;2023-06-10T05:19:11;3.67;;;2.40;;
46288;SDS011;63105;46.158;14.604;2023-06-10T05:21:37;3.60;;;2.60;;
46288;SDS011;63105;46.158;14.604;2023-06-10T05:24:02;3.60;;;2.50;;
46288;SDS011;63105;46.158;14.604;2023-06-10T05:26:27;3.30;;;2.20;;
46288;SDS011;63105;46.158;14.604;2023-06-10T05:28:53;3.50;;;2.13;;
46288;SDS011;63105;46.158;14.604;2023-06-10T05:31:19;3.83;;;2.63;;
46288;SDS011;63105;46.158;14.604;2023-06-10T05:33:44;3.42;;;2.35;;
46288;SDS011;63105;46.158;14.604;2023-06-10T05:36:09;4.20;;;2.33;;
46288;SDS011;63105;46.158;14.604;2023-06-10T05:38:34;5.03;;;2.83;;
46288;SDS011;63105;46.158;14.604;2023-06-10T05:41:00;3.60;;;2.33;;
46288;SDS011;63105;46.158;14.604;2023-06-10T05:43:25;2.97;;;1.93;;
46288;SDS011;63105;46.158;14.604;2023-06-10T05:45:50;3.50;;;2.30;;
46288;SDS011;63105;46.158;14.604;2023-06-10T05:48:15;3.97;;;2.40;;
46288;SDS011;63105;46.158;14.604;2023-06-10T05:50:41;3.53;;;2.30;;
46288;SDS011;63105;46.158;14.604;2023-06-10T05:53:09;3.47;;;2.50;;
46288;SDS011;63105;46.158;14.604;2023-06-10T05:55:40;3.50;;;2.33;;
46288;SDS011;63105;46.158;14.604;2023-06-10T05:58:05;3.78;;;2.53;;
46288;SDS011;63105;46.158;14.604;2023-06-10T06:00:30;3.60;;;2.50;;
46288;SDS011;63105;46.158;14.604;2023-06-10T06:02:55;3.63;;;2.30;;
46288;SDS011;63105;46.158;14.604;2023-06-10T06:05:22;4.05;;;2.72;;
46288;SDS011;63105;46.158;14.604;2023-06-10T06:07:47;3.83;;;2.55;;
46288;SDS011;63105;46.158;14.604;2023-06-10T06:10:12;4.32;;;2.90;;
46288;SDS011;63105;46.158;14.604;2023-06-10T06:12:37;4.43;;;2.60;;
46288;SDS011;63105;46.158;14.604;2023-06-10T06:15:03;4.10;;;2.57;;
46288;SDS011;63105;46.158;14.604;2023-06-10T06:17:28;4.32;;;2.40;;
46288;SDS011;63105;46.158;14.604;2023-06-10T06:19:53;4.10;;;2.60;;
46288;SDS011;63105;46.158;14.604;2023-06-10T06:22:18;4.30;;;2.70;;
46288;SDS011;63105;46.158;14.604;2023-06-10T06:24:46;3.92;;;2.55;;
46288;SDS011;63105;46.158;14.604;2023-06-10T06:27:11;4.10;;;2.90;;
46288;SDS011;63105;46.158;14.604;2023-06-10T06:29:37;4.47;;;2.75;;
46288;SDS011;63105;46.158;14.604;2023-06-10T06:32:02;4.27;;;2.97;;
46288;SDS011;63105;46.158;14.604;2023-06-10T06:34:27;3.92;;;2.67;;
46288;SDS011;63105;46.158;14.604;2023-06-10T06:36:52;5.23;;;2.90;;
46288;SDS011;63105;46.158;14.604;2023-06-10T06:39:17;4.23;;;2.80;;
46288;SDS011;63105;46.158;14.604;2023-06-10T06:41:43;3.77;;;2.77;;
46288;SDS011;63105;46.158;14.604;2023-06-10T06:44:08;4.27;;;2.90;;
46288;SDS011;63105;46.158;14.604;2023-06-10T06:46:33;3.83;;;2.53;;
46288;SDS011;63105;46.158;14.604;2023-06-10T06:48:58;4.00;;;2.73;;
46288;SDS011;63105;46.158;14.604;2023-06-10T06:51:23;4.30;;;3.00;;
46288;SDS011;63105;46.158;14.604;2023-06-10T06:53:49;4.10;;;3.00;;
46288;SDS011;63105;46.158;14.604;2023-06-10T06:56:16;4.38;;;3.25;;
46288;SDS011;63105;46.158;14.604;2023-06-10T06:58:41;8.07;;;3.43;;
46288;SDS011;63105;46.158;14.604;2023-06-10T07:01:06;6.33;;;3.30;;
46288;SDS011;63105;46.158;14.604;2023-06-10T07:03:31;4.22;;;3.08;;
46288;SDS011;63105;46.158;14.604;2023-06-10T07:05:57;4.32;;;2.72;;
46288;SDS011;63105;46.158;14.604;2023-06-10T07:08:22;4.18;;;3.00;;
46288;SDS011;63105;46.158;14.604;2023-06-10T07:10:47;4.90;;;2.70;;
46288;SDS011;63105;46.158;14.604;2023-06-10T07:13:14;5.18;;;2.80;;
46288;SDS011;63105;46.158;14.604;2023-06-10T07:15:39;3.90;;;2.90;;
46288;SDS011;63105;46.158;14.604;2023-06-10T07:18:04;4.50;;;3.20;;
46288;SDS011;63105;46.158;14.604;2023-06-10T07:20:29;4.75;;;3.30;;
46288;SDS011;63105;46.158;14.604;2023-06-10T07:22:55;5.23;;;3.00;;
46288;SDS011;63105;46.158;14.604;2023-06-10T07:25:20;4.00;;;2.40;;
46288;SDS011;63105;46.158;14.604;2023-06-10T07:27:45;3.60;;;2.53;;
46288;SDS011;63105;46.158;14.604;2023-06-10T07:30:10;4.00;;;2.70;;
46288;SDS011;63105;46.158;14.604;2023-06-10T07:32:36;3.75;;;2.58;;
46288;SDS011;63105;46.158;14.604;2023-06-10T07:35:01;4.80;;;2.90;;
46288;SDS011;63105;46.158;14.604;2023-06-10T07:37:26;5.47;;;2.83;;
46288;SDS011;63105;46.158;14.604;2023-06-10T07:39:51;4.47;;;3.27;;
46288;SDS011;63105;46.158;14.604;2023-06-10T07:42:17;3.93;;;2.73;;
46288;SDS011;63105;46.158;14.604;2023-06-10T07:44:42;5.57;;;3.20;;
46288;SDS011;63105;46.158;14.604;2023-06-10T07:47:07;4.60;;;3.03;;
46288;SDS011;63105;46.158;14.604;2023-06-10T07:49:32;4.30;;;2.83;;
46288;SDS011;63105;46.158;14.604;2023-06-10T07:51:57;3.88;;;2.65;;
46288;SDS011;63105;46.158;14.604;2023-06-10T07:54:23;3.95;;;2.70;;
46288;SDS011;63105;46.158;14.604;2023-06-10T07:56:48;3.97;;;2.87;;
46288;SDS011;63105;46.158;14.604;2023-06-10T07:59:13;4.68;;;3.05;;
46288;SDS011;63105;46.158;14.604;2023-06-10T08:01:38;4.28;;;2.83;;
46288;SDS011;63105;46.158;14.604;2023-06-10T08:04:05;3.95;;;2.50;;
46288;SDS011;63105;46.158;14.604;2023-06-10T08:06:30;4.40;;;2.60;;
46288;SDS011;63105;46.158;14.604;2023-06-10T08:08:55;4.90;;;2.60;;
46288;SDS011;63105;46.158;14.604;2023-06-10T08:11:20;3.77;;;2.30;;
46288;SDS011;63105;46.158;14.604;2023-06-10T08:13:46;4.00;;;2.72;;
46288;SDS011;63105;46.158;14.604;2023-06-10T08:16:11;3.60;;;2.33;;
46288;SDS011;63105;46.158;14.604;2023-06-10T08:18:36;3.80;;;2.30;;
46288;SDS011;63105;46.158;14.604;2023-06-10T08:21:01;3.37;;;2.20;;
46288;SDS011;63105;46.158;14.604;2023-06-10T08:23:26;3.67;;;2.20;;
46288;SDS011;63105;46.158;14.604;2023-06-10T08:25:52;3.00;;;1.90;;
46288;SDS011;63105;46.158;14.604;2023-06-10T08:28:17;3.30;;;2.22;;
46288;SDS011;63105;46.158;14.604;2023-06-10T08:30:43;3.20;;;2.03;;
46288;SDS011;63105;46.158;14.604;2023-06-10T08:33:08;3.47;;;2.03;;
46288;SDS011;63105;46.158;14.604;2023-06-10T08:35:33;4.47;;;2.30;;
46288;SDS011;63105;46.158;14.604;2023-06-10T08:37:58;3.40;;;2.03;;
46288;SDS011;63105;46.158;14.604;2023-06-10T08:40:23;3.63;;;2.30;;
46288;SDS011;63105;46.158;14.604;2023-06-10T08:42:52;3.25;;;1.90;;
46288;SDS011;63105;46.158;14.604;2023-06-10T08:45:19;3.30;;;1.75;;
46288;SDS011;63105;46.158;14.604;2023-06-10T08:47:45;3.60;;;2.50;;
46288;SDS011;63105;46.158;14.604;2023-06-10T08:50:11;3.58;;;2.05;;
46288;SDS011;63105;46.158;14.604;2023-06-10T08:52:37;3.28;;;2.10;;
46288;SDS011;63105;46.158;14.604;2023-06-10T08:55:03;3.08;;;1.98;;
46288;SDS011;63105;46.158;14.604;2023-06-10T08:57:29;3.30;;;2.13;;
46288;SDS011;63105;46.158;14.604;2023-06-10T08:59:56;3.30;;;1.88;;
46288;SDS011;63105;46.158;14.604;2023-06-10T09:02:21;3.10;;;2.00;;
46288;SDS011;63105;46.158;14.604;2023-06-10T09:04:47;3.50;;;2.20;;
46288;SDS011;63105;46.158;14.604;2023-06-10T09:07:15;3.53;;;2.38;;
46288;SDS011;63105;46.158;14.604;2023-06-10T09:09:41;3.10;;;2.03;;
46288;SDS011;63105;46.158;14.604;2023-06-10T09:12:07;3.10;;;2.20;;
46288;SDS011;63105;46.158;14.604;2023-06-10T09:14:32;3.88;;;2.45;;
46288;SDS011;63105;46.158;14.604;2023-06-10T09:16:58;3.03;;;2.00;;
46288;SDS011;63105;46.158;14.604;2023-06-10T09:19:23;3.25;;;2.00;;
46288;SDS011;63105;46.158;14.604;2023-06-10T09:21:50;3.08;;;2.10;;
46288;SDS011;63105;46.158;14.604;2023-06-10T09:24:15;3.67;;;2.20;;
46288;SDS011;63105;46.158;14.604;2023-06-10T09:26:41;3.10;;;1.87;;
46288;SDS011;63105;46.158;14.604;2023-06-10T09:29:08;3.00;;;1.90;;
46288;SDS011;63105;46.158;14.604;2023-06-10T09:31:34;3.20;;;2.03;;
46288;SDS011;63105;46.158;14.604;2023-06-10T09:34:12;3.13;;;2.15;;
46288;SDS011;63105;46.158;14.604;2023-06-10T09:36:38;3.55;;;2.40;;
46288;SDS011;63105;46.158;14.604;2023-06-10T09:39:04;3.45;;;2.33;;
46288;SDS011;63105;46.158;14.604;2023-06-10T09:41:33;3.60;;;2.47;;
46288;SDS011;63105;46.158;14.604;2023-06-10T09:43:59;4.82;;;2.72;;
46288;SDS011;63105;46.158;14.604;2023-06-10T09:46:25;3.38;;;2.33;;
46288;SDS011;63105;46.158;14.604;2023-06-10T09:48:55;3.70;;;2.70;;
46288;SDS011;63105;46.158;14.604;2023-06-10T09:51:22;3.30;;;2.20;;
46288;SDS011;63105;46.158;14.604;2023-06-10T09:53:48;3.40;;;2.35;;
46288;SDS011;63105;46.158;14.604;2023-06-10T09:56:15;3.72;;;2.30;;
46288;SDS011;63105;46.158;14.604;2023-06-10T09:58:40;3.77;;;2.70;;
46288;SDS011;63105;46.158;14.604;2023-06-10T10:01:08;3.97;;;3.03;;
46288;SDS011;63105;46.158;14.604;2023-06-10T10:03:34;4.80;;;3.00;;
46288;SDS011;63105;46.158;14.604;2023-06-10T10:06:07;5.53;;;3.10;;
46288;SDS011;63105;46.158;14.604;2023-06-10T10:08:33;4.78;;;3.45;;
46288;SDS011;63105;46.158;14.604;2023-06-10T10:10:59;5.10;;;3.63;;
46288;SDS011;63105;46.158;14.604;2023-06-10T10:13:24;4.78;;;3.38;;
46288;SDS011;63105;46.158;14.604;2023-06-10T10:15:50;4.28;;;3.50;;
46288;SDS011;63105;46.158;14.604;2023-06-10T10:18:16;4.87;;;3.50;;
46288;SDS011;63105;46.158;14.604;2023-06-10T10:20:50;5.65;;;3.83;;
46288;SDS011;63105;46.158;14.604;2023-06-10T10:23:18;4.55;;;3.40;;
46288;SDS011;63105;46.158;14.604;2023-06-10T10:25:49;4.70;;;3.70;;
46288;SDS011;63105;46.158;14.604;2023-06-10T10:28:16;5.20;;;3.90;;
46288;SDS011;63105;46.158;14.604;2023-06-10T10:30:46;4.70;;;3.30;;
46288;SDS011;63105;46.158;14.604;2023-06-10T10:35:36;6.80;;;3.80;;
46288;SDS011;63105;46.158;14.604;2023-06-10T10:38:02;6.53;;;3.72;;
46288;SDS011;63105;46.158;14.604;2023-06-10T10:40:28;6.78;;;4.40;;
46288;SDS011;63105;46.158;14.604;2023-06-10T10:42:55;8.70;;;4.28;;
46288;SDS011;63105;46.158;14.604;2023-06-10T10:45:21;4.55;;;3.10;;
46288;SDS011;63105;46.158;14.604;2023-06-10T10:47:46;4.40;;;3.10;;
46288;SDS011;63105;46.158;14.604;2023-06-10T10:50:17;5.93;;;4.18;;
46288;SDS011;63105;46.158;14.604;2023-06-10T10:52:55;5.70;;;3.90;;
46288;SDS011;63105;46.158;14.604;2023-06-10T10:55:22;5.90;;;3.75;;
46288;SDS011;63105;46.158;14.604;2023-06-10T10:58:23;6.05;;;4.13;;
46288;SDS011;63105;46.158;14.604;2023-06-10T11:00:44;5.10;;;4.05;;
46288;SDS011;63105;46.158;14.604;2023-06-10T11:03:13;5.15;;;3.78;;
46288;SDS011;63105;46.158;14.604;2023-06-10T11:05:40;5.60;;;3.97;;
46288;SDS011;63105;46.158;14.604;2023-06-10T11:08:07;7.07;;;4.25;;
46288;SDS011;63105;46.158;14.604;2023-06-10T11:10:39;8.23;;;4.50;;
46288;SDS011;63105;46.158;14.604;2023-06-10T11:13:06;5.53;;;4.00;;
46288;SDS011;63105;46.158;14.604;2023-06-10T11:15:32;6.43;;;4.55;;
46288;SDS011;63105;46.158;14.604;2023-06-10T11:21:08;6.72;;;4.50;;
46288;SDS011;63105;46.158;14.604;2023-06-10T11:28:36;8.03;;;5.60;;
46288;SDS011;63105;46.158;14.604;2023-06-10T11:31:02;6.05;;;4.78;;
46288;SDS011;63105;46.158;14.604;2023-06-10T11:33:27;8.27;;;5.50;;
46288;SDS011;63105;46.158;14.604;2023-06-10T11:35:52;5.78;;;4.28;;
46288;SDS011;63105;46.158;14.604;2023-06-10T11:38:18;7.97;;;5.10;;
46288;SDS011;63105;46.158;14.604;2023-06-10T11:40:50;6.13;;;4.43;;
46288;SDS011;63105;46.158;14.604;2023-06-10T11:43:16;6.25;;;5.03;;
46288;SDS011;63105;46.158;14.604;2023-06-10T11:45:42;6.72;;;5.07;;
46288;SDS011;63105;46.158;14.604;2023-06-10T11:48:08;7.13;;;4.83;;
46288;SDS011;63105;46.158;14.604;2023-06-10T11:50:34;5.38;;;4.28;;
46288;SDS011;63105;46.158;14.604;2023-06-10T11:52:59;5.90;;;4.13;;
46288;SDS011;63105;46.158;14.604;2023-06-10T11:55:25;4.28;;;3.33;;
46288;SDS011;63105;46.158;14.604;2023-06-10T11:57:51;5.40;;;3.60;;
46288;SDS011;63105;46.158;14.604;2023-06-10T12:00:22;4.65;;;3.53;;
46288;SDS011;63105;46.158;14.604;2023-06-10T12:02:54;4.95;;;3.35;;
46288;SDS011;63105;46.158;14.604;2023-06-10T12:05:20;4.45;;;3.33;;
46288;SDS011;63105;46.158;14.604;2023-06-10T12:07:45;5.37;;;3.57;;
46288;SDS011;63105;46.158;14.604;2023-06-10T12:10:10;6.27;;;3.70;;
46288;SDS011;63105;46.158;14.604;2023-06-10T12:12:36;4.63;;;3.30;;
46288;SDS011;63105;46.158;14.604;2023-06-10T12:15:02;5.22;;;3.75;;
46288;SDS011;63105;46.158;14.604;2023-06-10T12:19:55;5.30;;;3.60;;
46288;SDS011;63105;46.158;14.604;2023-06-10T12:22:20;5.27;;;3.77;;
46288;SDS011;63105;46.158;14.604;2023-06-10T12:24:56;5.30;;;3.47;;
46288;SDS011;63105;46.158;14.604;2023-06-10T12:27:21;6.80;;;3.75;;
46288;SDS011;63105;46.158;14.604;2023-06-10T12:29:50;5.22;;;3.50;;
46288;SDS011;63105;46.158;14.604;2023-06-10T12:32:16;6.30;;;4.03;;
46288;SDS011;63105;46.158;14.604;2023-06-10T12:34:42;5.40;;;4.00;;
46288;SDS011;63105;46.158;14.604;2023-06-10T12:37:10;4.83;;;3.40;;
46288;SDS011;63105;46.158;14.604;2023-06-10T12:39:39;5.28;;;3.58;;
46288;SDS011;63105;46.158;14.604;2023-06-10T12:42:05;5.57;;;3.55;;
46288;SDS011;63105;46.158;14.604;2023-06-10T12:44:34;5.25;;;3.50;;
46288;SDS011;63105;46.158;14.604;2023-06-10T12:47:00;4.85;;;3.42;;
46288;SDS011;63105;46.158;14.604;2023-06-10T12:49:25;4.68;;;3.30;;
46288;SDS011;63105;46.158;14.604;2023-06-10T12:51:51;4.32;;;3.15;;
46288;SDS011;63105;46.158;14.604;2023-06-10T12:54:16;4.45;;;3.10;;
46288;SDS011;63105;46.158;14.604;2023-06-10T12:56:42;4.05;;;2.75;;
46288;SDS011;63105;46.158;14.604;2023-06-10T12:59:07;4.33;;;3.07;;
46288;SDS011;63105;46.158;14.604;2023-06-10T13:01:32;4.57;;;3.20;;
46288;SDS011;63105;46.158;14.604;2023-06-10T13:03:58;4.22;;;3.08;;
46288;SDS011;63105;46.158;14.604;2023-06-10T13:06:23;4.30;;;2.90;;
46288;SDS011;63105;46.158;14.604;2023-06-10T13:08:48;3.90;;;2.80;;
46288;SDS011;63105;46.158;14.604;2023-06-10T13:11:14;4.67;;;3.37;;
46288;SDS011;63105;46.158;14.604;2023-06-10T13:13:39;4.50;;;3.00;;
46288;SDS011;63105;46.158;14.604;2023-06-10T13:16:04;4.63;;;3.33;;
46288;SDS011;63105;46.158;14.604;2023-06-10T13:18:30;5.63;;;3.28;;
46288;SDS011;63105;46.158;14.604;2023-06-10T13:20:56;4.35;;;3.30;;
46288;SDS011;63105;46.158;14.604;2023-06-10T13:23:22;4.50;;;3.15;;
46288;SDS011;63105;46.158;14.604;2023-06-10T13:25:47;4.20;;;3.13;;
46288;SDS011;63105;46.158;14.604;2023-06-10T13:28:12;4.90;;;3.20;;
46288;SDS011;63105;46.158;14.604;2023-06-10T13:30:38;6.30;;;3.90;;
46288;SDS011;63105;46.158;14.604;2023-06-10T13:33:03;5.33;;;3.53;;
46288;SDS011;63105;46.158;14.604;2023-06-10T13:35:28;4.83;;;3.20;;
46288;SDS011;63105;46.158;14.604;2023-06-10T13:37:53;5.50;;;3.53;;
46288;SDS011;63105;46.158;14.604;2023-06-10T13:40:18;4.83;;;3.40;;
46288;SDS011;63105;46.158;14.604;2023-06-10T13:42:44;4.47;;;3.00;;
46288;SDS011;63105;46.158;14.604;2023-06-10T13:45:10;4.50;;;3.25;;
46288;SDS011;63105;46.158;14.604;2023-06-10T13:47:35;4.80;;;3.30;;
46288;SDS011;63105;46.158;14.604;2023-06-10T13:50:00;4.47;;;3.63;;
46288;SDS011;63105;46.158;14.604;2023-06-10T13:52:25;4.85;;;3.58;;
46288;SDS011;63105;46.158;14.604;2023-06-10T13:54:51;4.63;;;3.40;;
46288;SDS011;63105;46.158;14.604;2023-06-10T13:57:16;5.17;;;3.33;;
46288;SDS011;63105;46.158;14.604;2023-06-10T13:59:41;5.32;;;3.35;;
46288;SDS011;63105;46.158;14.604;2023-06-10T14:02:06;4.87;;;3.40;;
46288;SDS011;63105;46.158;14.604;2023-06-10T14:04:31;5.17;;;3.90;;
46288;SDS011;63105;46.158;14.604;2023-06-10T14:06:57;5.78;;;3.10;;
46288;SDS011;63105;46.158;14.604;2023-06-10T14:09:22;4.60;;;3.50;;
46288;SDS011;63105;46.158;14.604;2023-06-10T14:11:48;5.32;;;3.63;;
46288;SDS011;63105;46.158;14.604;2023-06-10T14:14:13;4.90;;;3.92;;
46288;SDS011;63105;46.158;14.604;2023-06-10T14:16:39;5.40;;;4.10;;
46288;SDS011;63105;46.158;14.604;2023-06-10T14:19:05;5.10;;;3.53;;
46288;SDS011;63105;46.158;14.604;2023-06-10T14:21:30;5.47;;;3.90;;
46288;SDS011;63105;46.158;14.604;2023-06-10T14:23:55;5.50;;;3.77;;
46288;SDS011;63105;46.158;14.604;2023-06-10T14:26:20;4.67;;;3.57;;
46288;SDS011;63105;46.158;14.604;2023-06-10T14:28:47;5.13;;;3.47;;
46288;SDS011;63105;46.158;14.604;2023-06-10T14:31:12;4.60;;;3.70;;
46288;SDS011;63105;46.158;14.604;2023-06-10T14:33:37;5.63;;;4.00;;
46288;SDS011;63105;46.158;14.604;2023-06-10T14:36:02;4.90;;;4.00;;
46288;SDS011;63105;46.158;14.604;2023-06-10T14:38:28;5.68;;;4.60;;
46288;SDS011;63105;46.158;14.604;2023-06-10T14:40:53;6.45;;;4.50;;
46288;SDS011;63105;46.158;14.604;2023-06-10T14:43:18;5.03;;;3.90;;